AirNav   Air Wisconsin Up To $57,000 Bonus
 
 1375 users online  

4K3 Lexington Municipal Airport
Lexington, Missouri, USA

GOING TO LEXINGTON?


FAA INFORMATION EFFECTIVE 10 OCTOBER 2019

Location

FAA Identifier: 4K3
Lat/Long: 39-12-35.6000N 093-55-39.8000W
39-12.593333N 093-55.663333W
39.2098889,-93.9277222
(estimated)
Elevation: 691 ft. / 210.6 m (surveyed)
Variation: 04E (1985)
From city: 3 miles NW of LEXINGTON, MO
Time zone: UTC -5 (UTC -6 during Standard Time)
Zip code: 64036

Airport Operations

Airport use: Open to the public
Activation date: 12/1945
Control tower: no
ARTCC: KANSAS CITY CENTER
FSS: COLUMBIA FLIGHT SERVICE STATION
NOTAMs facility: COU (NOTAM-D service available)
Attendance: IRREGULAR 24 HOURS/DAY
Wind indicator: yes
Segmented circle: no

Airport Communications

CTAF/UNICOM: 122.7
WX AWOS-3 at GPH (19 nm NW): 120.275 (816-407-3399)
  • APCH/DEP SVC PRVDD BY KANSAS CITY ARTCC ON FREQS 135.575/323.15 (KNOB NOSTER RCAG).

Nearby radio navigation aids

VOR radial/distance  VOR name  Freq  Var
ANXr047/11.6NAPOLEON VORTAC114.0007E
BQSr183/25.4BRAYMER VOR/DME111.2003E
MCIr092/37.9KANSAS CITY VORTAC113.2505E

Airport Services

Parking: hangars and tiedowns
Bottled oxygen: NONE
Bulk oxygen: NONE

Runway Information

Runway 4/22

Dimensions: 2925 x 40 ft. / 892 x 12 m
Surface: asphalt, in fair condition
RY 04/22 ROUGH, LARGE PITS IN SFC, CRACKS.
RUNWAY 4  RUNWAY 22
Latitude: 39-12.414867N39-12.770117N
Longitude: 093-55.818150W093-55.399750W
Elevation: 691.0 ft.689.0 ft.
Traffic pattern: leftleft
Runway heading: 038 magnetic, 042 true218 magnetic, 222 true
Touchdown point: yes, no lightsno, no lights
Obstructions: 14 ft. road, 325 ft. from runway, 130 ft. left and right of centerline, 8:1 slope to clearnone

Runway 13/31

Dimensions: 3100 x 125 ft. / 945 x 38 m
Surface: turf, in excellent condition
RUNWAY 13  RUNWAY 31
Latitude: 39-12.784217N39-12.415330N
Longitude: 093-55.819643W093-55.365503W
Elevation: 690.0 ft.690.0 ft.
Traffic pattern: leftleft
Runway heading: 132 magnetic, 136 true312 magnetic, 316 true
Obstructions: 29 ft. pline, marked, 330 ft. from runway, 150 ft. left and right of centerline, 11:1 slope to clear15 ft. road, 270 ft. from runway, 140 ft. left and right of centerline, 18:1 slope to clear

Runway 18/36

Dimensions: 2250 x 125 ft. / 686 x 38 m
Surface: turf, in excellent condition
RUNWAY 18  RUNWAY 36
Latitude: 39-12.769533N39-12.398467N
Longitude: 093-55.829917W093-55.829917W
Elevation: 690.0 ft.690.0 ft.
Traffic pattern: leftleft
Runway heading: 176 magnetic, 180 true356 magnetic, 000 true
Obstructions: none15 ft. road, 227 ft. from runway, 15:1 slope to clear

Airport Ownership and Management from official FAA records

Ownership: Privately-owned
Owner: DAVID EDWARDS
11215 GREAT CANADIAN LANE
RICHMOND, MO 64085
Phone (816) 752-5333
Manager: DAVID EDWARDS
11215 GREAT CANADIAN LANE
RICHMOND, MO 64085
Phone (816) 752-5333

Airport Operational Statistics

Aircraft based on the field: 2
Single engine airplanes: 2
  • ULTRALIGHT ACTIVITY & RADIO CONTROLLED AIRPLANES ON & INVOF ARPT.
    
Aircraft operations: avg 92/week *
58% local general aviation
31% transient general aviation
5% military
5% air taxi
* for 12-month period ending 31 December 2018

Additional Remarks

MIGRATORY BIRDS INVOF ARPT DURING SPRING AND FALL.
NTSD RWY SAFETY AREA RWY22; INCORRECT TERRAIN GRADES.
FOR CD CTC KANSAS CITY ARTCC AT 913-254-8508.

Instrument Procedures

There are no published instrument procedures at 4K3.

Some nearby airports with instrument procedures:

KHIG - Higginsville Industrial Municipal Airport (14 nm SE)
3EX - Excelsior Springs Memorial Airport (15 nm NW)
3GV - East Kansas City Airport (18 nm SW)
KGPH - Midwest National Air Center Airport (19 nm NW)
KLXT - Lee's Summit Municipal Airport (26 nm SW)
 
Loc | Ops | Rwys | IFR | FBO | Links
Com | Nav | Svcs | Stats | Notes

Kansas City Aviation Department
 
Area around 4K3 (Lexington Municipal Airport)
 
Road maps at: MapQuest Bing Google
 
Aerial photo
WARNING: Photo may not be current or correct
Aerial photo of 4K3 (Lexington Municipal Airport)
Do you have a better or more recent aerial photo of Lexington Municipal Airport that you would like to share? If so, please send us your photo.

 
Sectional chart

 
Airport distance calculator
Flying to Lexington Municipal Airport? Find the distance to fly.

From to 4K3

Sunrise and sunset
Times for 14-Oct-2019
 Local
(UTC-5)
 Zulu
(UTC)
Morning civil twilight06:5911:59
Sunrise07:2512:25
Sunset18:3823:38
Evening civil twilight19:0500:05

Current date and time
Zulu (UTC)  14-Oct-2019 18:04:29
Local (UTC-5)  14-Oct-2019 13:04:29
 
METAR
KGPH 
19nm NW 
141735Z AUTO 00000KT 10SM CLR 16/05 A3004 RMK AO2
KLXT 
25nm SW 
141753Z AUTO 19006KT 10SM CLR 21/09 A3000 RMK AO2 SLP158 T02060089 10206 20044 58021
KRCM 
26nm S 
141755Z AUTO RMK AO2 TSNO PWINO
KMKC 
32nm W 
141754Z 16009KT 120V180 10SM CLR 22/08 A2998 RMK AO2 SLP152 T02170083 10217 20056 58024
KMHL 
34nm E 
141755Z AUTO 29007KT 10SM CLR 19/06 A3005 RMK AO2 TSNO PWINO
KSZL 
35nm SE 
141756Z AUTO 18006KT 10SM CLR 21/09 A2999 RMK AO2 SLP158 T02070087 10207 20034 57019
KEZZ 
35nm NW 
141755Z AUTO 14008KT 10SM CLR 19/06 A3002 RMK AO2 T01870056 10188 20023
KMCI 
38nm W 
141753Z 14009KT 10SM CLR 19/09 A2999 RMK AO2 SLP153 T01940094 10194 20028 58020
TAF
KMKC 
32nm W 
141730Z 1418/1518 17012KT P6SM SKC FM150500 19009KT P6SM FEW060 WS020/21035KT FM150900 20010KT P6SM SCT030 FM151500 35014KT P6SM FEW250
KMCI 
38nm W 
141730Z 1418/1518 17012KT P6SM SKC FM150500 19009KT P6SM FEW060 WS020/21035KT FM151000 20010KT P6SM SCT030 FM151400 35014KT P6SM FEW250
NOTAMs
Click for the latest NOTAMs
NOTAMs are issued by the DoD/FAA and will open in a separate window not controlled by AirNav.

 

 
 

Would you like to see your business listed on this page?

 If your business provides an interesting product or service to pilots, flight crews, aircraft, or users of the Lexington Municipal Airport, you should consider listing it here.  To start the listing process, click on the button below
 
Add a business
 

Other Pages about Lexington Municipal Airport

Update a link
 
Copyright © AirNav, LLC. All rights reserved. Privacy Policy  Contact